sensor_id;sensor_type;location;lat;lon;timestamp;P1;durP1;ratioP1;P2;durP2;ratioP2
41512;SDS011;27244;59.940;30.280;2023-04-24T00:00:04;8.80;;;3.67;;
41512;SDS011;27244;59.940;30.280;2023-04-24T00:02:35;8.05;;;3.60;;
41512;SDS011;27244;59.940;30.280;2023-04-24T00:05:04;7.78;;;3.47;;
41512;SDS011;27244;59.940;30.280;2023-04-24T00:07:31;6.82;;;3.75;;
41512;SDS011;27244;59.940;30.280;2023-04-24T00:09:58;8.18;;;4.10;;
41512;SDS011;27244;59.940;30.280;2023-04-24T00:12:25;10.50;;;3.80;;
41512;SDS011;27244;59.940;30.280;2023-04-24T00:14:53;7.45;;;3.75;;
41512;SDS011;27244;59.940;30.280;2023-04-24T00:17:20;7.07;;;3.63;;
41512;SDS011;27244;59.940;30.280;2023-04-24T00:19:48;6.00;;;3.42;;
41512;SDS011;27244;59.940;30.280;2023-04-24T00:22:16;5.85;;;3.42;;
41512;SDS011;27244;59.940;30.280;2023-04-24T00:24:45;5.55;;;3.33;;
41512;SDS011;27244;59.940;30.280;2023-04-24T00:27:12;7.53;;;3.95;;
41512;SDS011;27244;59.940;30.280;2023-04-24T00:29:39;7.07;;;3.70;;
41512;SDS011;27244;59.940;30.280;2023-04-24T00:32:06;8.43;;;3.55;;
41512;SDS011;27244;59.940;30.280;2023-04-24T00:34:33;6.68;;;3.45;;
41512;SDS011;27244;59.940;30.280;2023-04-24T00:37:02;19.77;;;4.28;;
41512;SDS011;27244;59.940;30.280;2023-04-24T00:39:29;6.63;;;3.90;;
41512;SDS011;27244;59.940;30.280;2023-04-24T00:41:56;7.07;;;3.40;;
41512;SDS011;27244;59.940;30.280;2023-04-24T00:44:23;6.15;;;3.60;;
41512;SDS011;27244;59.940;30.280;2023-04-24T00:46:50;6.50;;;3.50;;
41512;SDS011;27244;59.940;30.280;2023-04-24T00:49:20;5.88;;;4.07;;
41512;SDS011;27244;59.940;30.280;2023-04-24T00:51:48;7.95;;;3.80;;
41512;SDS011;27244;59.940;30.280;2023-04-24T00:54:18;7.22;;;3.65;;
41512;SDS011;27244;59.940;30.280;2023-04-24T00:56:45;7.95;;;3.88;;
41512;SDS011;27244;59.940;30.280;2023-04-24T00:59:13;8.43;;;3.53;;
41512;SDS011;27244;59.940;30.280;2023-04-24T01:01:42;5.88;;;3.35;;
41512;SDS011;27244;59.940;30.280;2023-04-24T01:04:09;8.25;;;4.40;;
41512;SDS011;27244;59.940;30.280;2023-04-24T01:06:38;5.70;;;3.67;;
41512;SDS011;27244;59.940;30.280;2023-04-24T01:09:07;7.63;;;3.45;;
41512;SDS011;27244;59.940;30.280;2023-04-24T01:11:36;7.53;;;3.50;;
41512;SDS011;27244;59.940;30.280;2023-04-24T01:14:04;9.75;;;3.75;;
41512;SDS011;27244;59.940;30.280;2023-04-24T01:16:31;6.25;;;3.53;;
41512;SDS011;27244;59.940;30.280;2023-04-24T01:19:00;6.47;;;3.50;;
41512;SDS011;27244;59.940;30.280;2023-04-24T01:21:26;8.90;;;3.80;;
41512;SDS011;27244;59.940;30.280;2023-04-24T01:23:58;9.20;;;3.42;;
41512;SDS011;27244;59.940;30.280;2023-04-24T01:26:25;7.57;;;3.47;;
41512;SDS011;27244;59.940;30.280;2023-04-24T01:28:52;6.22;;;3.03;;
41512;SDS011;27244;59.940;30.280;2023-04-24T01:31:19;8.25;;;3.15;;
41512;SDS011;27244;59.940;30.280;2023-04-24T01:33:46;4.50;;;3.10;;
41512;SDS011;27244;59.940;30.280;2023-04-24T01:36:14;5.40;;;2.80;;
41512;SDS011;27244;59.940;30.280;2023-04-24T01:38:42;5.60;;;3.42;;
41512;SDS011;27244;59.940;30.280;2023-04-24T01:41:11;6.35;;;3.53;;
41512;SDS011;27244;59.940;30.280;2023-04-24T01:43:38;7.50;;;3.65;;
41512;SDS011;27244;59.940;30.280;2023-04-24T01:46:06;5.43;;;3.13;;
41512;SDS011;27244;59.940;30.280;2023-04-24T01:48:35;5.30;;;3.03;;
41512;SDS011;27244;59.940;30.280;2023-04-24T01:51:02;5.95;;;2.75;;
41512;SDS011;27244;59.940;30.280;2023-04-24T01:53:29;6.18;;;3.40;;
41512;SDS011;27244;59.940;30.280;2023-04-24T01:55:56;5.05;;;3.20;;
41512;SDS011;27244;59.940;30.280;2023-04-24T01:58:25;5.07;;;3.15;;
41512;SDS011;27244;59.940;30.280;2023-04-24T02:00:54;5.70;;;3.13;;
41512;SDS011;27244;59.940;30.280;2023-04-24T02:03:23;9.25;;;3.13;;
41512;SDS011;27244;59.940;30.280;2023-04-24T02:05:49;4.22;;;2.60;;
41512;SDS011;27244;59.940;30.280;2023-04-24T02:08:16;5.22;;;3.10;;
41512;SDS011;27244;59.940;30.280;2023-04-24T02:10:43;5.55;;;3.00;;
41512;SDS011;27244;59.940;30.280;2023-04-24T02:13:10;8.23;;;3.08;;
41512;SDS011;27244;59.940;30.280;2023-04-24T02:15:39;4.78;;;2.72;;
41512;SDS011;27244;59.940;30.280;2023-04-24T02:18:06;4.68;;;2.83;;
41512;SDS011;27244;59.940;30.280;2023-04-24T02:20:33;5.32;;;3.13;;
41512;SDS011;27244;59.940;30.280;2023-04-24T02:23:00;8.25;;;3.30;;
41512;SDS011;27244;59.940;30.280;2023-04-24T02:25:27;5.70;;;2.70;;
41512;SDS011;27244;59.940;30.280;2023-04-24T02:27:54;6.70;;;2.85;;
41512;SDS011;27244;59.940;30.280;2023-04-24T02:30:21;4.68;;;2.58;;
41512;SDS011;27244;59.940;30.280;2023-04-24T02:32:50;8.25;;;2.95;;
41512;SDS011;27244;59.940;30.280;2023-04-24T02:35:17;8.68;;;2.90;;
41512;SDS011;27244;59.940;30.280;2023-04-24T02:37:44;5.32;;;2.88;;
41512;SDS011;27244;59.940;30.280;2023-04-24T02:40:11;5.30;;;3.17;;
41512;SDS011;27244;59.940;30.280;2023-04-24T02:42:38;8.52;;;3.55;;
41512;SDS011;27244;59.940;30.280;2023-04-24T02:45:05;4.43;;;2.67;;
41512;SDS011;27244;59.940;30.280;2023-04-24T02:47:33;4.47;;;2.88;;
41512;SDS011;27244;59.940;30.280;2023-04-24T02:50:01;4.93;;;3.30;;
41512;SDS011;27244;59.940;30.280;2023-04-24T02:52:29;6.07;;;2.97;;
41512;SDS011;27244;59.940;30.280;2023-04-24T02:54:56;4.38;;;2.88;;
41512;SDS011;27244;59.940;30.280;2023-04-24T02:57:23;7.30;;;3.65;;
41512;SDS011;27244;59.940;30.280;2023-04-24T02:59:50;5.07;;;3.22;;
41512;SDS011;27244;59.940;30.280;2023-04-24T03:02:17;4.22;;;2.85;;
41512;SDS011;27244;59.940;30.280;2023-04-24T03:04:45;5.05;;;2.70;;
41512;SDS011;27244;59.940;30.280;2023-04-24T03:07:14;5.45;;;2.60;;
41512;SDS011;27244;59.940;30.280;2023-04-24T03:09:42;4.93;;;2.45;;
41512;SDS011;27244;59.940;30.280;2023-04-24T03:12:09;5.20;;;3.20;;
41512;SDS011;27244;59.940;30.280;2023-04-24T03:14:36;6.47;;;3.50;;
41512;SDS011;27244;59.940;30.280;2023-04-24T03:17:03;6.45;;;3.20;;
41512;SDS011;27244;59.940;30.280;2023-04-24T03:19:29;8.52;;;3.42;;
41512;SDS011;27244;59.940;30.280;2023-04-24T03:22:04;6.35;;;3.10;;
41512;SDS011;27244;59.940;30.280;2023-04-24T03:24:34;5.82;;;2.97;;
41512;SDS011;27244;59.940;30.280;2023-04-24T03:27:01;6.45;;;3.03;;
41512;SDS011;27244;59.940;30.280;2023-04-24T03:30:01;6.47;;;2.70;;
41512;SDS011;27244;59.940;30.280;2023-04-24T03:32:43;4.80;;;2.90;;
41512;SDS011;27244;59.940;30.280;2023-04-24T03:35:13;8.20;;;3.00;;
41512;SDS011;27244;59.940;30.280;2023-04-24T03:37:40;5.13;;;3.10;;
41512;SDS011;27244;59.940;30.280;2023-04-24T03:40:43;4.80;;;2.63;;
41512;SDS011;27244;59.940;30.280;2023-04-24T03:43:26;5.05;;;3.30;;
41512;SDS011;27244;59.940;30.280;2023-04-24T03:45:55;5.22;;;3.20;;
41512;SDS011;27244;59.940;30.280;2023-04-24T03:48:22;7.85;;;3.17;;
41512;SDS011;27244;59.940;30.280;2023-04-24T03:50:50;6.03;;;3.20;;
41512;SDS011;27244;59.940;30.280;2023-04-24T03:53:17;5.60;;;3.00;;
41512;SDS011;27244;59.940;30.280;2023-04-24T03:55:46;6.35;;;2.80;;
41512;SDS011;27244;59.940;30.280;2023-04-24T03:58:13;5.25;;;2.70;;
41512;SDS011;27244;59.940;30.280;2023-04-24T04:00:41;4.15;;;2.67;;
41512;SDS011;27244;59.940;30.280;2023-04-24T04:03:32;5.40;;;3.03;;
41512;SDS011;27244;59.940;30.280;2023-04-24T04:06:00;5.05;;;2.97;;
41512;SDS011;27244;59.940;30.280;2023-04-24T04:08:27;6.20;;;2.80;;
41512;SDS011;27244;59.940;30.280;2023-04-24T04:10:55;5.68;;;2.90;;
41512;SDS011;27244;59.940;30.280;2023-04-24T04:13:22;8.02;;;2.90;;
41512;SDS011;27244;59.940;30.280;2023-04-24T04:15:49;5.53;;;2.88;;
41512;SDS011;27244;59.940;30.280;2023-04-24T04:18:16;5.60;;;2.80;;
41512;SDS011;27244;59.940;30.280;2023-04-24T04:20:43;6.00;;;2.50;;
41512;SDS011;27244;59.940;30.280;2023-04-24T04:23:12;5.88;;;2.63;;
41512;SDS011;27244;59.940;30.280;2023-04-24T04:25:52;5.35;;;2.70;;
41512;SDS011;27244;59.940;30.280;2023-04-24T04:30:52;5.25;;;3.00;;
41512;SDS011;27244;59.940;30.280;2023-04-24T04:33:22;7.43;;;3.03;;
41512;SDS011;27244;59.940;30.280;2023-04-24T04:35:49;8.45;;;4.05;;
41512;SDS011;27244;59.940;30.280;2023-04-24T04:38:18;6.20;;;2.80;;
41512;SDS011;27244;59.940;30.280;2023-04-24T04:40:52;7.60;;;2.67;;
41512;SDS011;27244;59.940;30.280;2023-04-24T04:43:22;7.32;;;2.78;;
41512;SDS011;27244;59.940;30.280;2023-04-24T04:45:52;9.77;;;2.88;;
41512;SDS011;27244;59.940;30.280;2023-04-24T04:48:35;5.07;;;3.08;;
41512;SDS011;27244;59.940;30.280;2023-04-24T04:51:04;7.22;;;2.80;;
41512;SDS011;27244;59.940;30.280;2023-04-24T04:53:31;7.72;;;2.92;;
41512;SDS011;27244;59.940;30.280;2023-04-24T04:55:58;7.95;;;2.97;;
41512;SDS011;27244;59.940;30.280;2023-04-24T04:58:32;7.13;;;3.00;;
41512;SDS011;27244;59.940;30.280;2023-04-24T05:01:02;9.82;;;3.05;;
41512;SDS011;27244;59.940;30.280;2023-04-24T05:03:37;9.45;;;3.55;;
41512;SDS011;27244;59.940;30.280;2023-04-24T05:06:08;8.00;;;3.08;;
41512;SDS011;27244;59.940;30.280;2023-04-24T05:08:38;10.90;;;3.55;;
41512;SDS011;27244;59.940;30.280;2023-04-24T05:11:08;7.75;;;3.45;;
41512;SDS011;27244;59.940;30.280;2023-04-24T05:13:37;5.00;;;2.88;;
41512;SDS011;27244;59.940;30.280;2023-04-24T05:16:09;9.23;;;3.10;;
41512;SDS011;27244;59.940;30.280;2023-04-24T05:18:36;4.00;;;2.88;;
41512;SDS011;27244;59.940;30.280;2023-04-24T05:21:05;5.10;;;2.60;;
41512;SDS011;27244;59.940;30.280;2023-04-24T05:23:33;6.22;;;2.67;;
41512;SDS011;27244;59.940;30.280;2023-04-24T05:26:00;3.85;;;2.47;;
41512;SDS011;27244;59.940;30.280;2023-04-24T05:28:29;3.47;;;2.53;;
41512;SDS011;27244;59.940;30.280;2023-04-24T05:31:06;4.93;;;2.72;;
41512;SDS011;27244;59.940;30.280;2023-04-24T05:33:36;3.47;;;2.22;;
41512;SDS011;27244;59.940;30.280;2023-04-24T05:36:03;3.33;;;2.50;;
41512;SDS011;27244;59.940;30.280;2023-04-24T05:38:32;6.07;;;2.53;;
41512;SDS011;27244;59.940;30.280;2023-04-24T05:40:59;3.38;;;2.20;;
41512;SDS011;27244;59.940;30.280;2023-04-24T05:43:26;4.47;;;2.75;;
41512;SDS011;27244;59.940;30.280;2023-04-24T05:45:53;7.00;;;2.30;;
41512;SDS011;27244;59.940;30.280;2023-04-24T05:48:20;3.72;;;2.50;;
41512;SDS011;27244;59.940;30.280;2023-04-24T05:50:50;3.28;;;2.20;;
41512;SDS011;27244;59.940;30.280;2023-04-24T05:53:17;4.00;;;2.45;;
41512;SDS011;27244;59.940;30.280;2023-04-24T05:55:44;6.95;;;2.10;;
41512;SDS011;27244;59.940;30.280;2023-04-24T05:58:12;3.13;;;2.22;;
41512;SDS011;27244;59.940;30.280;2023-04-24T06:00:39;2.85;;;2.17;;
41512;SDS011;27244;59.940;30.280;2023-04-24T06:03:09;3.10;;;2.10;;
41512;SDS011;27244;59.940;30.280;2023-04-24T06:05:36;5.38;;;2.50;;
41512;SDS011;27244;59.940;30.280;2023-04-24T06:08:05;3.38;;;2.17;;
41512;SDS011;27244;59.940;30.280;2023-04-24T06:10:35;3.85;;;2.42;;
41512;SDS011;27244;59.940;30.280;2023-04-24T06:13:03;2.85;;;2.00;;
41512;SDS011;27244;59.940;30.280;2023-04-24T06:15:34;2.27;;;1.67;;
41512;SDS011;27244;59.940;30.280;2023-04-24T06:18:10;13.30;;;3.55;;
41512;SDS011;27244;59.940;30.280;2023-04-24T06:20:39;10.63;;;3.53;;
41512;SDS011;27244;59.940;30.280;2023-04-24T06:23:09;7.72;;;2.83;;
41512;SDS011;27244;59.940;30.280;2023-04-24T06:25:36;3.38;;;2.00;;
41512;SDS011;27244;59.940;30.280;2023-04-24T06:28:04;4.38;;;2.58;;
41512;SDS011;27244;59.940;30.280;2023-04-24T06:30:31;2.97;;;2.00;;
41512;SDS011;27244;59.940;30.280;2023-04-24T06:32:58;6.00;;;2.72;;
41512;SDS011;27244;59.940;30.280;2023-04-24T06:35:25;3.47;;;1.80;;
41512;SDS011;27244;59.940;30.280;2023-04-24T06:37:52;4.03;;;2.10;;
41512;SDS011;27244;59.940;30.280;2023-04-24T06:40:22;3.25;;;2.05;;
41512;SDS011;27244;59.940;30.280;2023-04-24T06:42:49;5.82;;;2.22;;
41512;SDS011;27244;59.940;30.280;2023-04-24T06:45:16;3.97;;;2.10;;
41512;SDS011;27244;59.940;30.280;2023-04-24T06:47:44;4.82;;;1.95;;
41512;SDS011;27244;59.940;30.280;2023-04-24T06:50:11;4.22;;;2.05;;
41512;SDS011;27244;59.940;30.280;2023-04-24T06:52:38;3.72;;;1.90;;
41512;SDS011;27244;59.940;30.280;2023-04-24T06:55:05;5.00;;;1.90;;
41512;SDS011;27244;59.940;30.280;2023-04-24T06:57:34;3.58;;;2.35;;
41512;SDS011;27244;59.940;30.280;2023-04-24T07:00:02;4.25;;;1.90;;
41512;SDS011;27244;59.940;30.280;2023-04-24T07:02:30;4.85;;;1.95;;
41512;SDS011;27244;59.940;30.280;2023-04-24T07:04:57;5.15;;;1.70;;
41512;SDS011;27244;59.940;30.280;2023-04-24T07:07:24;4.18;;;2.05;;
41512;SDS011;27244;59.940;30.280;2023-04-24T07:09:51;4.70;;;2.00;;
41512;SDS011;27244;59.940;30.280;2023-04-24T07:12:19;2.67;;;1.55;;
41512;SDS011;27244;59.940;30.280;2023-04-24T07:14:50;6.00;;;1.70;;
41512;SDS011;27244;59.940;30.280;2023-04-24T07:17:17;6.30;;;3.03;;
41512;SDS011;27244;59.940;30.280;2023-04-24T07:19:44;6.13;;;2.08;;
41512;SDS011;27244;59.940;30.280;2023-04-24T07:22:10;3.30;;;1.70;;
41512;SDS011;27244;59.940;30.280;2023-04-24T07:24:42;3.03;;;1.58;;
41512;SDS011;27244;59.940;30.280;2023-04-24T07:27:09;3.50;;;1.95;;
41512;SDS011;27244;59.940;30.280;2023-04-24T07:29:36;3.60;;;1.75;;
41512;SDS011;27244;59.940;30.280;2023-04-24T07:32:05;3.40;;;1.67;;
41512;SDS011;27244;59.940;30.280;2023-04-24T07:34:33;4.28;;;1.55;;
41512;SDS011;27244;59.940;30.280;2023-04-24T07:37:00;6.18;;;2.00;;
41512;SDS011;27244;59.940;30.280;2023-04-24T07:39:27;4.38;;;1.90;;
41512;SDS011;27244;59.940;30.280;2023-04-24T07:41:54;6.75;;;2.45;;
41512;SDS011;27244;59.940;30.280;2023-04-24T07:44:21;4.53;;;1.73;;
41512;SDS011;27244;59.940;30.280;2023-04-24T07:46:48;4.63;;;2.05;;
41512;SDS011;27244;59.940;30.280;2023-04-24T07:49:17;4.50;;;1.52;;
41512;SDS011;27244;59.940;30.280;2023-04-24T07:51:44;4.53;;;1.77;;
41512;SDS011;27244;59.940;30.280;2023-04-24T07:54:11;3.92;;;1.83;;
41512;SDS011;27244;59.940;30.280;2023-04-24T07:56:38;6.07;;;1.50;;
41512;SDS011;27244;59.940;30.280;2023-04-24T07:59:06;5.05;;;1.55;;
41512;SDS011;27244;59.940;30.280;2023-04-24T08:01:34;4.30;;;1.80;;
41512;SDS011;27244;59.940;30.280;2023-04-24T08:04:01;7.00;;;2.45;;
41512;SDS011;27244;59.940;30.280;2023-04-24T08:06:30;3.30;;;1.48;;
41512;SDS011;27244;59.940;30.280;2023-04-24T08:08:57;6.65;;;2.40;;
41512;SDS011;27244;59.940;30.280;2023-04-24T08:11:24;5.40;;;1.90;;
41512;SDS011;27244;59.940;30.280;2023-04-24T08:13:52;2.63;;;1.63;;
41512;SDS011;27244;59.940;30.280;2023-04-24T08:16:19;2.72;;;1.35;;
41512;SDS011;27244;59.940;30.280;2023-04-24T08:18:47;4.82;;;1.88;;
41512;SDS011;27244;59.940;30.280;2023-04-24T08:21:14;3.90;;;1.55;;
41512;SDS011;27244;59.940;30.280;2023-04-24T08:23:43;2.47;;;1.55;;
41512;SDS011;27244;59.940;30.280;2023-04-24T08:26:11;3.75;;;1.55;;
41512;SDS011;27244;59.940;30.280;2023-04-24T08:28:38;3.60;;;1.50;;
41512;SDS011;27244;59.940;30.280;2023-04-24T08:31:05;2.65;;;1.55;;
41512;SDS011;27244;59.940;30.280;2023-04-24T08:33:32;2.65;;;1.67;;
41512;SDS011;27244;59.940;30.280;2023-04-24T08:36:00;2.38;;;1.25;;
41512;SDS011;27244;59.940;30.280;2023-04-24T08:38:28;4.00;;;1.85;;
41512;SDS011;27244;59.940;30.280;2023-04-24T08:40:57;2.22;;;1.40;;
41512;SDS011;27244;59.940;30.280;2023-04-24T08:43:26;3.20;;;1.77;;
41512;SDS011;27244;59.940;30.280;2023-04-24T08:45:55;5.43;;;2.05;;
41512;SDS011;27244;59.940;30.280;2023-04-24T08:48:22;10.35;;;2.42;;
41512;SDS011;27244;59.940;30.280;2023-04-24T08:50:50;14.65;;;2.92;;
41512;SDS011;27244;59.940;30.280;2023-04-24T08:53:17;14.32;;;2.47;;
41512;SDS011;27244;59.940;30.280;2023-04-24T08:55:47;9.25;;;2.78;;
41512;SDS011;27244;59.940;30.280;2023-04-24T08:58:16;17.48;;;3.13;;
41512;SDS011;27244;59.940;30.280;2023-04-24T09:00:44;10.98;;;2.92;;
41512;SDS011;27244;59.940;30.280;2023-04-24T09:03:13;12.07;;;3.10;;
41512;SDS011;27244;59.940;30.280;2023-04-24T09:05:41;20.48;;;3.15;;
41512;SDS011;27244;59.940;30.280;2023-04-24T09:08:11;11.32;;;2.50;;
41512;SDS011;27244;59.940;30.280;2023-04-24T09:10:40;12.07;;;2.80;;
41512;SDS011;27244;59.940;30.280;2023-04-24T09:13:07;16.45;;;3.08;;
41512;SDS011;27244;59.940;30.280;2023-04-24T09:15:37;16.42;;;3.00;;
41512;SDS011;27244;59.940;30.280;2023-04-24T09:18:05;12.82;;;2.70;;
41512;SDS011;27244;59.940;30.280;2023-04-24T09:20:32;11.63;;;3.42;;
41512;SDS011;27244;59.940;30.280;2023-04-24T09:23:01;13.65;;;3.08;;
41512;SDS011;27244;59.940;30.280;2023-04-24T09:25:30;9.25;;;2.72;;
41512;SDS011;27244;59.940;30.280;2023-04-24T09:28:00;13.90;;;2.90;;
41512;SDS011;27244;59.940;30.280;2023-04-24T09:30:27;11.40;;;3.33;;
41512;SDS011;27244;59.940;30.280;2023-04-24T09:35:50;14.27;;;2.40;;
41512;SDS011;27244;59.940;30.280;2023-04-24T09:38:17;9.77;;;2.78;;
41512;SDS011;27244;59.940;30.280;2023-04-24T09:40:44;10.13;;;2.78;;
41512;SDS011;27244;59.940;30.280;2023-04-24T09:43:11;9.65;;;2.80;;
41512;SDS011;27244;59.940;30.280;2023-04-24T09:45:38;11.93;;;3.00;;
41512;SDS011;27244;59.940;30.280;2023-04-24T09:48:08;15.23;;;2.95;;
41512;SDS011;27244;59.940;30.280;2023-04-24T09:50:35;7.80;;;2.70;;
41512;SDS011;27244;59.940;30.280;2023-04-24T09:53:04;8.95;;;2.60;;
41512;SDS011;27244;59.940;30.280;2023-04-24T09:55:35;11.27;;;4.30;;
41512;SDS011;27244;59.940;30.280;2023-04-24T09:58:05;10.80;;;2.85;;
41512;SDS011;27244;59.940;30.280;2023-04-24T10:00:34;8.00;;;2.47;;
41512;SDS011;27244;59.940;30.280;2023-04-24T10:03:02;8.07;;;2.53;;
41512;SDS011;27244;59.940;30.280;2023-04-24T10:05:30;6.68;;;2.25;;
41512;SDS011;27244;59.940;30.280;2023-04-24T10:08:02;13.13;;;3.03;;
41512;SDS011;27244;59.940;30.280;2023-04-24T10:10:31;6.45;;;2.72;;
41512;SDS011;27244;59.940;30.280;2023-04-24T10:13:01;9.30;;;2.80;;
41512;SDS011;27244;59.940;30.280;2023-04-24T10:15:29;8.48;;;2.47;;
41512;SDS011;27244;59.940;30.280;2023-04-24T10:17:57;9.38;;;3.03;;
41512;SDS011;27244;59.940;30.280;2023-04-24T10:20:26;8.90;;;2.47;;
41512;SDS011;27244;59.940;30.280;2023-04-24T10:22:55;6.38;;;2.20;;
41512;SDS011;27244;59.940;30.280;2023-04-24T10:25:25;6.03;;;2.17;;
41512;SDS011;27244;59.940;30.280;2023-04-24T10:27:53;7.20;;;2.83;;
41512;SDS011;27244;59.940;30.280;2023-04-24T10:30:25;10.10;;;3.03;;
41512;SDS011;27244;59.940;30.280;2023-04-24T10:32:53;5.50;;;2.53;;
41512;SDS011;27244;59.940;30.280;2023-04-24T10:35:21;5.82;;;2.30;;
41512;SDS011;27244;59.940;30.280;2023-04-24T10:37:54;7.70;;;2.30;;
41512;SDS011;27244;59.940;30.280;2023-04-24T10:40:27;5.35;;;2.45;;
41512;SDS011;27244;59.940;30.280;2023-04-24T10:42:56;6.40;;;2.25;;
41512;SDS011;27244;59.940;30.280;2023-04-24T10:45:23;7.15;;;2.38;;
41512;SDS011;27244;59.940;30.280;2023-04-24T10:47:51;7.32;;;2.45;;
41512;SDS011;27244;59.940;30.280;2023-04-24T10:50:19;4.70;;;2.00;;
41512;SDS011;27244;59.940;30.280;2023-04-24T10:52:46;8.55;;;2.25;;
41512;SDS011;27244;59.940;30.280;2023-04-24T10:55:16;5.43;;;1.85;;
41512;SDS011;27244;59.940;30.280;2023-04-24T10:58:08;4.95;;;1.90;;
41512;SDS011;27244;59.940;30.280;2023-04-24T11:00:36;5.20;;;2.10;;
41512;SDS011;27244;59.940;30.280;2023-04-24T11:03:04;7.35;;;2.05;;
41512;SDS011;27244;59.940;30.280;2023-04-24T11:08:27;4.70;;;1.75;;
41512;SDS011;27244;59.940;30.280;2023-04-24T11:11:09;6.18;;;2.33;;
41512;SDS011;27244;59.940;30.280;2023-04-24T11:16:43;5.57;;;2.10;;
41512;SDS011;27244;59.940;30.280;2023-04-24T11:19:17;5.05;;;2.42;;
41512;SDS011;27244;59.940;30.280;2023-04-24T11:21:50;4.03;;;1.75;;
41512;SDS011;27244;59.940;30.280;2023-04-24T11:24:25;4.25;;;1.88;;
41512;SDS011;27244;59.940;30.280;2023-04-24T11:26:56;2.60;;;1.58;;
41512;SDS011;27244;59.940;30.280;2023-04-24T11:29:37;3.92;;;1.80;;
41512;SDS011;27244;59.940;30.280;2023-04-24T11:34:54;5.15;;;1.92;;
41512;SDS011;27244;59.940;30.280;2023-04-24T11:37:23;4.32;;;1.50;;
41512;SDS011;27244;59.940;30.280;2023-04-24T11:39:53;3.45;;;1.73;;
41512;SDS011;27244;59.940;30.280;2023-04-24T11:42:22;3.15;;;1.67;;
41512;SDS011;27244;59.940;30.280;2023-04-24T11:44:51;4.07;;;1.50;;
41512;SDS011;27244;59.940;30.280;2023-04-24T11:47:19;3.10;;;1.67;;
41512;SDS011;27244;59.940;30.280;2023-04-24T11:49:46;3.70;;;1.88;;
41512;SDS011;27244;59.940;30.280;2023-04-24T11:52:15;4.05;;;1.50;;
41512;SDS011;27244;59.940;30.280;2023-04-24T11:54:46;4.28;;;1.63;;
41512;SDS011;27244;59.940;30.280;2023-04-24T11:57:15;4.88;;;2.00;;
41512;SDS011;27244;59.940;30.280;2023-04-24T11:59:43;2.75;;;1.52;;
41512;SDS011;27244;59.940;30.280;2023-04-24T12:02:19;2.53;;;1.50;;
41512;SDS011;27244;59.940;30.280;2023-04-24T12:04:47;7.53;;;1.83;;
41512;SDS011;27244;59.940;30.280;2023-04-24T12:07:13;7.35;;;1.80;;
41512;SDS011;27244;59.940;30.280;2023-04-24T12:09:41;3.17;;;1.40;;
41512;SDS011;27244;59.940;30.280;2023-04-24T12:12:08;3.35;;;1.50;;
41512;SDS011;27244;59.940;30.280;2023-04-24T12:14:49;3.83;;;1.63;;
41512;SDS011;27244;59.940;30.280;2023-04-24T12:17:16;2.92;;;1.70;;
41512;SDS011;27244;59.940;30.280;2023-04-24T12:19:46;6.38;;;1.80;;
41512;SDS011;27244;59.940;30.280;2023-04-24T12:22:15;2.75;;;1.40;;
41512;SDS011;27244;59.940;30.280;2023-04-24T12:24:55;3.35;;;1.58;;
41512;SDS011;27244;59.940;30.280;2023-04-24T12:27:23;2.85;;;1.50;;
41512;SDS011;27244;59.940;30.280;2023-04-24T12:29:52;5.43;;;1.75;;
41512;SDS011;27244;59.940;30.280;2023-04-24T12:32:20;2.97;;;1.55;;
41512;SDS011;27244;59.940;30.280;2023-04-24T12:34:47;1.95;;;1.33;;
41512;SDS011;27244;59.940;30.280;2023-04-24T12:37:15;2.53;;;1.70;;
41512;SDS011;27244;59.940;30.280;2023-04-24T12:39:44;2.22;;;1.33;;
41512;SDS011;27244;59.940;30.280;2023-04-24T12:42:25;2.50;;;1.30;;
41512;SDS011;27244;59.940;30.280;2023-04-24T12:44:55;2.70;;;1.25;;
41512;SDS011;27244;59.940;30.280;2023-04-24T12:47:23;2.55;;;1.40;;
41512;SDS011;27244;59.940;30.280;2023-04-24T12:49:51;2.53;;;1.30;;
41512;SDS011;27244;59.940;30.280;2023-04-24T12:52:18;2.97;;;1.60;;
41512;SDS011;27244;59.940;30.280;2023-04-24T12:54:46;2.75;;;1.48;;
41512;SDS011;27244;59.940;30.280;2023-04-24T12:57:13;2.92;;;1.42;;
41512;SDS011;27244;59.940;30.280;2023-04-24T12:59:40;2.50;;;1.40;;
41512;SDS011;27244;59.940;30.280;2023-04-24T13:02:08;2.20;;;1.30;;
41512;SDS011;27244;59.940;30.280;2023-04-24T13:04:36;2.05;;;1.20;;
41512;SDS011;27244;59.940;30.280;2023-04-24T13:07:03;2.53;;;1.30;;
41512;SDS011;27244;59.940;30.280;2023-04-24T13:09:30;2.30;;;1.13;;
41512;SDS011;27244;59.940;30.280;2023-04-24T13:12:00;1.92;;;1.23;;
41512;SDS011;27244;59.940;30.280;2023-04-24T13:14:27;3.95;;;1.48;;
41512;SDS011;27244;59.940;30.280;2023-04-24T13:16:53;2.88;;;1.27;;
41512;SDS011;27244;59.940;30.280;2023-04-24T13:19:23;2.28;;;1.38;;
41512;SDS011;27244;59.940;30.280;2023-04-24T13:21:51;1.80;;;1.00;;
41512;SDS011;27244;59.940;30.280;2023-04-24T13:24:18;2.08;;;1.13;;
41512;SDS011;27244;59.940;30.280;2023-04-24T13:26:45;2.17;;;1.20;;
41512;SDS011;27244;59.940;30.280;2023-04-24T13:29:12;2.08;;;1.35;;
41512;SDS011;27244;59.940;30.280;2023-04-24T13:31:39;2.72;;;1.45;;
41512;SDS011;27244;59.940;30.280;2023-04-24T13:34:06;2.33;;;1.30;;
41512;SDS011;27244;59.940;30.280;2023-04-24T13:36:34;2.20;;;1.25;;
41512;SDS011;27244;59.940;30.280;2023-04-24T13:39:01;1.83;;;1.20;;
41512;SDS011;27244;59.940;30.280;2023-04-24T13:41:29;1.70;;;1.10;;
41512;SDS011;27244;59.940;30.280;2023-04-24T13:43:56;2.72;;;1.15;;
41512;SDS011;27244;59.940;30.280;2023-04-24T13:46:23;1.35;;;1.10;;
41512;SDS011;27244;59.940;30.280;2023-04-24T13:48:51;2.08;;;1.30;;
41512;SDS011;27244;59.940;30.280;2023-04-24T13:51:18;2.13;;;1.17;;
41512;SDS011;27244;59.940;30.280;2023-04-24T13:53:46;2.00;;;1.40;;
41512;SDS011;27244;59.940;30.280;2023-04-24T13:56:13;1.77;;;1.55;;
41512;SDS011;27244;59.940;30.280;2023-04-24T13:58:41;2.47;;;1.30;;
41512;SDS011;27244;59.940;30.280;2023-04-24T14:01:08;1.70;;;1.05;;
41512;SDS011;27244;59.940;30.280;2023-04-24T14:03:36;1.75;;;1.35;;
41512;SDS011;27244;59.940;30.280;2023-04-24T14:06:04;2.85;;;1.70;;
41512;SDS011;27244;59.940;30.280;2023-04-24T14:08:31;1.83;;;1.13;;
41512;SDS011;27244;59.940;30.280;2023-04-24T14:10:59;1.35;;;1.10;;
41512;SDS011;27244;59.940;30.280;2023-04-24T14:13:26;2.92;;;1.10;;
41512;SDS011;27244;59.940;30.280;2023-04-24T14:15:54;1.48;;;1.20;;
41512;SDS011;27244;59.940;30.280;2023-04-24T14:18:21;1.80;;;1.00;;
41512;SDS011;27244;59.940;30.280;2023-04-24T14:20:48;2.28;;;1.33;;
41512;SDS011;27244;59.940;30.280;2023-04-24T14:23:15;2.70;;;1.40;;
41512;SDS011;27244;59.940;30.280;2023-04-24T14:25:42;2.45;;;1.20;;
41512;SDS011;27244;59.940;30.280;2023-04-24T14:28:10;1.95;;;1.20;;
41512;SDS011;27244;59.940;30.280;2023-04-24T14:30:37;2.05;;;1.40;;
41512;SDS011;27244;59.940;30.280;2023-04-24T14:33:05;1.60;;;1.10;;
41512;SDS011;27244;59.940;30.280;2023-04-24T14:35:32;2.72;;;1.15;;
41512;SDS011;27244;59.940;30.280;2023-04-24T14:38:00;1.40;;;1.05;;
41512;SDS011;27244;59.940;30.280;2023-04-24T14:40:27;2.35;;;1.10;;
41512;SDS011;27244;59.940;30.280;2023-04-24T14:42:55;1.58;;;0.88;;
41512;SDS011;27244;59.940;30.280;2023-04-24T14:45:24;2.05;;;1.10;;
41512;SDS011;27244;59.940;30.280;2023-04-24T14:47:51;2.22;;;1.38;;
41512;SDS011;27244;59.940;30.280;2023-04-24T14:50:19;4.13;;;1.25;;
41512;SDS011;27244;59.940;30.280;2023-04-24T14:52:46;2.35;;;1.50;;
41512;SDS011;27244;59.940;30.280;2023-04-24T14:55:13;2.25;;;1.17;;